Time;durP1;ratioP1;P1;durP2;ratioP2;P2;SDS_P1;SDS_P2;PMS_P1;PMS_P2;Temp;Humidity;BMP_temperature;BMP_pressure;BME280_temperature;BME280_humidity;BME280_pressure;Samples;Min_cycle;Max_cycle;Signal;HPM_P1;HPM_P2
2022/05/30 00:00:39;;;;;;;4.18;3.38;;;;;;;20.67;90.18;98488.78;5093763;28;20318;-59
2022/05/30 00:03:07;;;;;;;9.98;4.18;;;;;;;20.50;90.87;98478.03;5093532;28;20302;-56
2022/05/30 00:05:34;;;;;;;4.30;3.95;;;;;;;20.49;91.45;98493.03;5093761;28;20191;-59
2022/05/30 00:08:01;;;;;;;5.30;3.47;;;;;;;20.50;91.92;98491.22;5093460;28;20202;-56
2022/05/30 00:10:30;;;;;;;4.35;3.80;;;;;;;20.57;91.27;98489.72;5093725;28;20589;-59
2022/05/30 00:12:57;;;;;;;4.07;3.78;;;;;;;20.51;90.66;98479.72;5093826;28;20191;-59
2022/05/30 00:15:24;;;;;;;5.47;3.88;;;;;;;20.59;90.72;98493.06;5093626;28;20290;-60
2022/05/30 00:17:55;;;;;;;4.65;3.90;;;;;;;20.44;90.99;98486.47;5093422;28;20199;-59
2022/05/30 00:20:23;;;;;;;4.85;4.13;;;;;;;20.49;91.02;98492.19;5093317;28;20223;-60
2022/05/30 00:22:50;;;;;;;6.60;4.03;;;;;;;20.47;90.94;98502.03;5093238;28;20200;-59
2022/05/30 00:25:17;;;;;;;5.75;3.60;;;;;;;20.52;90.46;98507.75;5093144;28;20195;-59
2022/05/30 00:27:46;;;;;;;7.45;4.75;;;;;;;20.43;91.03;98516.44;5093224;28;20199;-59
2022/05/30 00:30:15;;;;;;;6.05;4.40;;;;;;;20.42;91.40;98523.50;5093272;28;20191;-56
2022/05/30 00:32:42;;;;;;;4.45;3.95;;;;;;;20.49;90.92;98532.56;5093167;28;20219;-59
2022/05/30 00:35:11;;;;;;;8.13;3.88;;;;;;;20.43;90.92;98522.53;5092663;28;20736;-59
2022/05/30 00:37:38;;;;;;;7.22;4.55;;;;;;;20.44;90.57;98528.63;5093100;28;20195;-57
2022/05/30 00:40:07;;;;;;;5.25;3.80;;;;;;;20.43;90.84;98524.34;5092918;28;20219;-57
2022/05/30 00:42:33;;;;;;;4.47;4.07;;;;;;;20.32;90.77;98525.19;5093056;28;20687;-60
2022/05/30 00:45:02;;;;;;;6.63;4.05;;;;;;;20.40;90.61;98519.34;5092908;28;20205;-56
2022/05/30 00:47:29;;;;;;;5.22;4.32;;;;;;;20.30;90.99;98517.44;5093044;28;20195;-60
2022/05/30 00:49:57;;;;;;;5.63;4.30;;;;;;;20.33;91.09;98510.22;5092943;28;20644;-57
2022/05/30 00:52:29;;;;;;;5.18;3.90;;;;;;;20.39;89.97;98515.03;5092687;28;20191;-59
2022/05/30 00:55:00;;;;;;;6.20;4.18;;;;;;;20.36;89.65;98515.28;5093022;28;20226;-59
2022/05/30 00:57:28;;;;;;;5.97;4.47;;;;;;;20.40;89.48;98522.81;5092934;28;20214;-60
2022/05/30 00:59:58;;;;;;;7.22;4.55;;;;;;;20.36;89.31;98520.53;5092684;28;20346;-60
2022/05/30 01:02:28;;;;;;;5.88;4.30;;;;;;;20.37;89.60;98523.06;5092578;28;20231;-60
2022/05/30 01:07:42;;;;;;;5.32;3.85;;;;;;;20.24;90.37;98527.66;5092614;28;20205;-56
2022/05/30 01:10:11;;;;;;;5.65;4.45;;;;;;;20.13;90.37;98525.09;5092523;28;20191;-59
2022/05/30 01:12:41;;;;;;;6.03;4.07;;;;;;;20.14;90.28;98537.28;5092502;28;20192;-56
2022/05/30 01:15:11;;;;;;;6.65;4.30;;;;;;;20.17;89.87;98532.63;5092323;28;20195;-56
2022/05/30 01:17:49;;;;;;;4.65;4.25;;;;;;;20.22;89.88;98530.41;5092441;28;20231;-59
2022/05/30 01:20:26;;;;;;;7.40;4.50;;;;;;;20.29;89.45;98531.59;5092374;28;20731;-57
2022/05/30 01:23:20;;;;;;;4.93;4.32;;;;;;;20.28;89.79;98535.19;5092280;28;20203;-56
2022/05/30 01:26:19;;;;;;;6.63;4.65;;;;;;;20.33;90.07;98531.31;5092285;28;20230;-59
2022/05/30 01:28:53;;;;;;;7.20;4.50;;;;;;;20.38;89.20;98535.28;5076946;28;20201;-56
2022/05/30 01:31:20;;;;;;;7.57;4.75;;;;;;;20.34;88.94;98528.53;5092230;28;20196;-59
2022/05/30 01:33:47;;;;;;;7.00;4.13;;;;;;;20.46;88.32;98527.53;5092017;28;20223;-58
2022/05/30 01:36:14;;;;;;;4.70;4.18;;;;;;;20.50;88.00;98536.88;5092014;28;20201;-55
2022/05/30 01:38:41;;;;;;;8.55;4.50;;;;;;;20.41;88.06;98526.28;5092158;28;20644;-55
2022/05/30 01:41:08;;;;;;;4.55;4.15;;;;;;;20.49;87.99;98537.84;5091822;28;20245;-54
2022/05/30 01:43:35;;;;;;;5.95;4.45;;;;;;;20.48;88.19;98537.97;5091980;28;20199;-55
2022/05/30 01:46:09;;;;;;;4.95;4.43;;;;;;;20.53;87.91;98543.69;5091763;28;20314;-58
2022/05/30 01:48:37;;;;;;;4.95;4.65;;;;;;;20.44;88.09;98523.34;5091988;28;20647;-56
2022/05/30 01:51:05;;;;;;;4.22;3.88;;;;;;;20.48;88.32;98540.59;5091642;28;20269;-56
2022/05/30 01:53:32;;;;;;;8.68;4.30;;;;;;;20.45;88.07;98530.31;5091732;28;20195;-58
2022/05/30 01:55:59;;;;;;;4.70;4.30;;;;;;;20.38;88.05;98537.91;5091724;28;20199;-59
2022/05/30 01:58:25;;;;;;;4.43;3.78;;;;;;;20.34;88.32;98535.63;5091854;28;20731;-59
2022/05/30 02:00:52;;;;;;;5.45;4.07;;;;;;;20.39;88.13;98530.84;5091370;28;20229;-59
2022/05/30 02:03:21;;;;;;;4.22;3.83;;;;;;;20.27;87.88;98530.03;5091672;28;20663;-56
2022/05/30 02:05:48;;;;;;;5.40;4.65;;;;;;;20.26;88.60;98538.91;5091510;28;20592;-59
2022/05/30 02:08:18;;;;;;;6.88;4.20;;;;;;;20.29;88.80;98542.13;5091293;28;20199;-59
2022/05/30 02:10:45;;;;;;;5.82;3.92;;;;;;;20.19;89.10;98538.59;5091352;28;20654;-55
2022/05/30 02:13:12;;;;;;;7.30;4.15;;;;;;;20.16;89.82;98545.91;5091316;28;20203;-58
2022/05/30 02:18:21;;;;;;;4.35;4.05;;;;;;;20.03;90.67;98548.72;5090883;28;20199;-59
2022/05/30 02:20:50;;;;;;;6.68;4.55;;;;;;;20.00;91.45;98540.22;5091353;28;20261;-58
2022/05/30 02:23:18;;;;;;;5.30;4.50;;;;;;;19.94;91.71;98547.69;5091103;28;20286;-58
2022/05/30 02:25:45;;;;;;;4.85;4.30;;;;;;;19.93;92.14;98550.44;5090875;28;20214;-58
2022/05/30 02:28:12;;;;;;;5.93;4.20;;;;;;;19.88;92.88;98549.97;5090534;28;20214;-58
2022/05/30 02:30:39;;;;;;;6.05;4.50;;;;;;;19.84;93.76;98556.47;5090911;28;20195;-56
2022/05/30 02:38:37;;;;;;;8.02;4.55;;;;;;;19.63;96.78;98563.50;5089349;28;20585;-58
2022/05/30 02:41:04;;;;;;;5.55;4.50;;;;;;;19.53;98.15;98564.22;5089399;28;20215;-56
2022/05/30 02:43:31;;;;;;;5.70;4.45;;;;;;;19.49;98.23;98562.81;5088320;28;20640;-55
2022/05/30 02:45:58;;;;;;;8.93;5.05;;;;;;;19.44;100.00;98572.81;5090200;28;20310;-55
2022/05/30 02:48:25;;;;;;;5.00;4.60;;;;;;;19.44;100.00;98575.44;5090562;28;20195;-59
2022/05/30 02:50:53;;;;;;;5.97;5.25;;;;;;;19.40;100.00;98581.94;5090308;28;20282;-59
2022/05/30 02:53:20;;;;;;;5.90;4.78;;;;;;;19.43;100.00;98594.81;5090470;28;20237;-55
2022/05/30 02:55:47;;;;;;;5.95;5.00;;;;;;;19.38;100.00;98596.16;5090661;28;20564;-55
2022/05/30 02:58:14;;;;;;;4.90;4.50;;;;;;;19.33;100.00;98608.84;5088906;28;20278;-55
2022/05/30 03:00:41;;;;;;;7.80;4.53;;;;;;;19.28;100.00;98601.31;5085815;28;20214;-59
2022/05/30 03:03:08;;;;;;;6.15;4.53;;;;;;;19.28;100.00;98613.63;5088341;28;20686;-60
2022/05/30 03:05:35;;;;;;;5.10;4.57;;;;;;;19.23;100.00;98616.63;5088175;28;20278;-55
2022/05/30 03:08:06;;;;;;;5.03;4.63;;;;;;;19.22;100.00;98631.56;5087329;28;20200;-55
2022/05/30 03:10:33;;;;;;;6.13;4.80;;;;;;;19.20;100.00;98630.84;5084698;28;20191;-55
2022/05/30 03:13:00;;;;;;;4.65;4.30;;;;;;;19.21;100.00;98631.69;5085403;28;20201;-59
2022/05/30 03:15:27;;;;;;;5.30;4.43;;;;;;;19.13;100.00;98615.66;5086754;28;20195;-59
2022/05/30 03:17:54;;;;;;;6.10;4.13;;;;;;;19.21;100.00;98627.25;5086770;28;20198;-58
2022/05/30 03:20:22;;;;;;;5.22;4.70;;;;;;;19.41;100.00;98652.00;5084408;28;20770;-58
2022/05/30 03:22:49;;;;;;;9.55;4.78;;;;;;;19.47;99.83;98650.69;5084605;28;20222;-60
2022/05/30 03:25:19;;;;;;;7.05;4.32;;;;;;;19.49;99.72;98656.72;5084152;28;20274;-58
2022/05/30 03:27:46;;;;;;;5.07;4.10;;;;;;;19.57;99.34;98662.19;5087117;28;20191;-59
2022/05/30 03:30:14;;;;;;;5.60;4.22;;;;;;;19.69;98.25;98663.88;5086487;28;20187;-59
2022/05/30 03:32:43;;;;;;;5.13;4.43;;;;;;;19.81;97.05;98672.59;5085682;28;20206;-58
2022/05/30 03:35:11;;;;;;;4.63;4.22;;;;;;;19.94;95.82;98673.28;5082339;28;20203;-59
2022/05/30 03:37:40;;;;;;;4.40;4.00;;;;;;;20.04;95.02;98674.22;5086520;28;20206;-59
2022/05/30 03:40:09;;;;;;;7.68;4.57;;;;;;;20.23;93.65;98678.81;5083208;28;20215;-58
2022/05/30 03:42:37;;;;;;;6.05;4.57;;;;;;;20.37;92.27;98690.91;5086642;28;20735;-59
2022/05/30 03:45:05;;;;;;;7.60;4.43;;;;;;;20.44;91.19;98676.25;5085539;28;20747;-55
2022/05/30 03:47:36;;;;;;;6.57;4.25;;;;;;;20.43;90.98;98682.50;5087985;28;20234;-55
2022/05/30 03:50:05;;;;;;;4.30;3.85;;;;;;;20.95;88.65;98698.28;5088423;28;20196;-56
2022/05/30 03:52:32;;;;;;;7.60;4.32;;;;;;;21.48;84.10;98694.69;5088323;28;20203;-56
2022/05/30 03:54:59;;;;;;;5.10;4.10;;;;;;;21.74;82.30;98704.66;5088409;28;20239;-58
2022/05/30 03:57:25;;;;;;;4.45;4.15;;;;;;;21.99;80.95;98705.19;5088812;28;20598;-55
2022/05/30 03:59:54;;;;;;;4.38;3.97;;;;;;;23.15;75.98;98714.81;5088784;28;20213;-55
2022/05/30 04:02:21;;;;;;;4.90;3.85;;;;;;;24.59;69.23;98717.75;5088715;28;20286;-58
2022/05/30 04:04:48;;;;;;;5.10;4.20;;;;;;;25.71;63.03;98717.91;5087089;28;20203;-55
2022/05/30 04:07:15;;;;;;;6.80;4.03;;;;;;;26.49;60.53;98718.50;5088226;28;20270;-55
2022/05/30 04:09:42;;;;;;;5.70;4.00;;;;;;;27.04;58.26;98729.38;5088794;28;20210;-55
2022/05/30 04:12:10;;;;;;;6.93;3.70;;;;;;;27.86;56.27;98736.19;5091076;28;20195;-58
2022/05/30 04:14:37;;;;;;;7.00;4.35;;;;;;;28.12;54.06;98736.72;5092552;28;20199;-57
2022/05/30 04:17:05;;;;;;;4.68;4.22;;;;;;;28.73;52.13;98719.03;5091277;28;20195;-58
2022/05/30 04:19:32;;;;;;;6.07;4.13;;;;;;;29.04;50.40;98737.66;5092357;28;20298;-58
2022/05/30 04:22:00;;;;;;;4.90;3.72;;;;;;;29.27;49.76;98742.97;5092612;28;20728;-57
2022/05/30 04:24:28;;;;;;;12.52;4.00;;;;;;;29.17;49.45;98734.38;5092818;28;20198;-58
2022/05/30 04:26:56;;;;;;;8.75;3.80;;;;;;;29.21;49.34;98733.84;5093224;28;20290;-60
2022/05/30 04:29:23;;;;;;;3.95;3.63;;;;;;;29.70;47.97;98738.69;5093053;28;20206;-58
2022/05/30 04:31:50;;;;;;;5.43;4.18;;;;;;;29.68;47.35;98734.56;5092994;28;20191;-58
2022/05/30 04:34:18;;;;;;;4.10;3.80;;;;;;;30.32;46.21;98741.78;5092971;28;20281;-58
2022/05/30 04:36:45;;;;;;;6.80;4.10;;;;;;;31.24;43.88;98749.09;5093009;28;20736;-57
2022/05/30 04:39:12;;;;;;;5.38;4.20;;;;;;;31.99;42.97;98751.00;5092786;28;20224;-58
2022/05/30 04:41:38;;;;;;;4.15;3.83;;;;;;;32.28;41.93;98763.38;5091760;28;20219;-58
2022/05/30 04:44:05;;;;;;;8.52;4.53;;;;;;;32.72;41.31;98757.50;5092915;28;20201;-59
2022/05/30 04:46:32;;;;;;;6.45;4.10;;;;;;;33.72;39.42;98759.16;5092952;28;20262;-58
2022/05/30 04:49:00;;;;;;;4.65;4.22;;;;;;;34.70;37.23;98770.59;5092534;28;20199;-59
2022/05/30 04:51:28;;;;;;;6.32;3.90;;;;;;;34.39;36.98;98758.75;5091205;28;20198;-57
2022/05/30 04:53:55;;;;;;;4.30;4.00;;;;;;;33.70;38.18;98756.66;5088642;28;20677;-57
2022/05/30 04:56:22;;;;;;;8.65;4.53;;;;;;;32.91;39.84;98759.38;5088014;28;20219;-57
2022/05/30 04:58:50;;;;;;;5.53;3.53;;;;;;;33.68;38.27;98764.13;5091734;28;20282;-58
2022/05/30 05:01:17;;;;;;;3.75;3.45;;;;;;;34.64;36.65;98766.06;5092192;28;20306;-59
2022/05/30 05:03:45;;;;;;;5.88;3.35;;;;;;;34.90;35.45;98766.75;5092400;28;20691;-59
2022/05/30 05:06:15;;;;;;;3.95;3.63;;;;;;;34.88;35.44;98765.28;5092266;28;20404;-59
2022/05/30 05:08:54;;;;;;;7.63;3.30;;;;;;;35.62;34.43;98767.19;5092423;28;20212;-58
2022/05/30 05:11:23;;;;;;;5.88;3.63;;;;;;;35.57;34.20;98769.72;5092478;28;20636;-59
2022/05/30 05:13:50;;;;;;;6.50;3.60;;;;;;;36.13;33.42;98771.41;5092272;28;20195;-58
2022/05/30 05:16:20;;;;;;;6.40;3.30;;;;;;;36.43;33.03;98777.72;5092137;28;20304;-59
2022/05/30 05:18:47;;;;;;;7.70;3.70;;;;;;;36.62;32.56;98775.78;5092298;28;20714;-58
2022/05/30 05:21:20;;;;;;;4.15;3.72;;;;;;;36.53;32.60;98775.28;5091334;28;20309;-60
2022/05/30 05:23:48;;;;;;;4.80;3.70;;;;;;;36.40;32.41;98761.97;5090538;28;20191;-59
2022/05/30 05:26:16;;;;;;;5.68;4.38;;;;;;;35.58;33.36;98779.47;5088702;28;20727;-60
2022/05/30 05:28:43;;;;;;;6.78;4.63;;;;;;;34.89;34.51;98781.25;5090700;28;20286;-60
2022/05/30 05:31:13;;;;;;;6.95;4.35;;;;;;;34.33;35.36;98769.53;5090492;28;20187;-58
2022/05/30 05:33:40;;;;;;;6.72;4.15;;;;;;;34.49;35.24;98774.44;5090565;28;20735;-58
2022/05/30 05:36:07;;;;;;;4.32;3.70;;;;;;;34.83;34.91;98774.06;5090245;28;20198;-59
2022/05/30 05:38:34;;;;;;;4.00;3.55;;;;;;;35.32;33.99;98788.66;5088293;28;20191;-60
2022/05/30 05:41:07;;;;;;;4.13;3.75;;;;;;;35.06;34.03;98786.13;5090348;28;20215;-59
2022/05/30 05:43:34;;;;;;;9.57;4.18;;;;;;;34.89;34.65;98788.53;5087656;28;20617;-59
2022/05/30 05:46:01;;;;;;;5.45;3.88;;;;;;;35.49;33.67;98786.22;5089821;28;20227;-59
2022/05/30 05:48:28;;;;;;;5.95;4.00;;;;;;;35.57;32.80;98800.25;5090438;28;20217;-60
2022/05/30 05:50:55;;;;;;;9.88;4.20;;;;;;;35.42;32.52;98801.66;5090708;28;20191;-59
2022/05/30 05:53:22;;;;;;;6.85;4.10;;;;;;;35.94;32.18;98806.53;5091445;28;20294;-59
2022/05/30 05:55:49;;;;;;;12.52;4.50;;;;;;;35.71;32.85;98800.94;5091311;28;20282;-58
2022/05/30 05:58:17;;;;;;;15.95;5.03;;;;;;;35.38;32.98;98809.34;5090785;28;20286;-59
2022/05/30 06:00:44;;;;;;;4.60;4.18;;;;;;;35.52;33.04;98807.38;5091251;28;20596;-59
2022/05/30 06:03:11;;;;;;;6.72;3.90;;;;;;;35.97;32.41;98811.50;5091727;28;20205;-59
2022/05/30 06:05:40;;;;;;;9.88;5.05;;;;;;;35.84;32.62;98825.16;5091351;28;20196;-59
2022/05/30 06:08:10;;;;;;;5.97;3.83;;;;;;;35.81;32.45;98822.88;5091173;28;20191;-60
2022/05/30 06:11:04;;;;;;;6.13;3.75;;;;;;;35.75;32.35;98818.41;5091400;28;20564;-59
2022/05/30 06:13:27;;;;;;;9.52;5.03;;;;;;;35.72;32.75;98820.66;5089643;28;20203;-59
2022/05/30 06:15:54;;;;;;;7.05;4.50;;;;;;;35.32;33.06;98829.13;5090509;28;20206;-59
2022/05/30 06:18:21;;;;;;;6.13;5.00;;;;;;;35.37;33.17;98831.16;5090158;28;20202;-58
2022/05/30 06:20:48;;;;;;;8.95;5.00;;;;;;;35.42;33.28;98834.03;5090319;28;20604;-59
2022/05/30 06:23:15;;;;;;;8.50;4.85;;;;;;;34.80;34.00;98835.66;5090816;28;20286;-60
2022/05/30 06:25:42;;;;;;;11.95;4.72;;;;;;;35.47;33.31;98839.59;5090946;28;20586;-59
2022/05/30 06:28:10;;;;;;;5.15;4.60;;;;;;;35.06;33.80;98824.72;5090842;28;20281;-58
2022/05/30 06:30:38;;;;;;;5.65;4.45;;;;;;;34.53;34.94;98840.34;5090979;28;20202;-59
2022/05/30 06:33:05;;;;;;;15.10;10.25;;;;;;;33.81;36.21;98828.75;5090401;28;20215;-59
2022/05/30 06:35:32;;;;;;;13.73;10.38;;;;;;;33.68;37.33;98835.97;5090898;28;20198;-59
2022/05/30 06:37:59;;;;;;;9.48;8.13;;;;;;;33.30;38.22;98833.06;5090547;28;20625;-59
2022/05/30 06:40:26;;;;;;;14.40;5.30;;;;;;;33.49;38.17;98838.47;5090513;28;20239;-59
2022/05/30 06:42:53;;;;;;;5.90;4.72;;;;;;;34.15;36.96;98832.16;5090609;28;20223;-59
2022/05/30 06:45:20;;;;;;;7.28;4.55;;;;;;;34.21;36.70;98837.53;5090421;28;20223;-59
2022/05/30 06:47:48;;;;;;;5.65;4.97;;;;;;;33.73;36.58;98828.94;5090780;28;20671;-59
2022/05/30 06:50:17;;;;;;;7.75;5.50;;;;;;;33.30;37.76;98827.69;5090554;28;20282;-57
2022/05/30 06:52:44;;;;;;;7.93;5.50;;;;;;;33.09;36.99;98834.88;5090644;28;20191;-58
2022/05/30 06:55:11;;;;;;;7.30;5.72;;;;;;;32.64;37.79;98835.56;5090342;28;20202;-58
2022/05/30 07:00:23;;;;;;;20.60;7.88;;;;;;;32.16;38.90;98819.47;5090515;28;20276;-59
2022/05/30 07:02:51;;;;;;;10.70;5.75;;;;;;;32.35;39.10;98829.50;5090361;28;20230;-59
2022/05/30 07:05:19;;;;;;;10.18;6.63;;;;;;;32.44;39.42;98833.66;5090177;28;20201;-59
2022/05/30 07:07:46;;;;;;;13.52;6.10;;;;;;;32.49;39.19;98834.94;5090711;28;20196;-59
2022/05/30 07:10:14;;;;;;;11.85;5.78;;;;;;;32.93;37.90;98837.97;5090457;28;20210;-59
2022/05/30 07:12:41;;;;;;;10.52;5.55;;;;;;;32.63;37.85;98824.00;5090427;28;20191;-56
2022/05/30 07:15:09;;;;;;;8.80;5.57;;;;;;;33.08;37.37;98819.78;5090108;28;20728;-60
2022/05/30 07:17:36;;;;;;;9.68;4.88;;;;;;;33.15;38.08;98833.25;5090140;28;20579;-59
2022/05/30 07:20:06;;;;;;;13.43;4.80;;;;;;;32.85;37.62;98824.72;5090067;28;20294;-60
2022/05/30 07:22:32;;;;;;;7.43;4.97;;;;;;;32.97;37.31;98841.06;5089967;28;20219;-59
2022/05/30 07:24:59;;;;;;;5.45;4.70;;;;;;;32.96;37.36;98834.06;5090094;28;20221;-58
2022/05/30 07:27:26;;;;;;;6.22;5.10;;;;;;;32.93;39.33;98829.91;5089721;28;20201;-60
2022/05/30 07:29:53;;;;;;;8.05;4.68;;;;;;;32.49;37.77;98833.06;5089824;28;20199;-58
2022/05/30 07:32:20;;;;;;;11.38;5.00;;;;;;;32.72;37.57;98828.22;5089315;28;20195;-59
2022/05/30 07:34:47;;;;;;;6.70;4.57;;;;;;;32.91;37.62;98834.66;5089189;28;20201;-59
2022/05/30 07:37:15;;;;;;;8.27;4.55;;;;;;;33.14;36.65;98829.75;5089522;28;20282;-59
2022/05/30 07:39:42;;;;;;;4.75;4.30;;;;;;;32.96;36.90;98836.75;5088989;28;20282;-60
2022/05/30 07:42:13;;;;;;;7.45;4.93;;;;;;;33.05;37.53;98838.22;5087767;28;21052;-60
2022/05/30 07:44:40;;;;;;;7.57;4.88;;;;;;;33.40;37.11;98836.19;5088870;28;20195;-59
2022/05/30 07:47:08;;;;;;;9.60;4.88;;;;;;;33.60;37.42;98839.72;5092619;28;20223;-60
2022/05/30 07:49:34;;;;;;;8.93;3.95;;;;;;;33.40;36.08;98830.81;5092802;28;20207;-59
2022/05/30 07:52:02;;;;;;;4.60;4.00;;;;;;;33.83;36.62;98840.13;5093355;28;20685;-61
2022/05/30 07:54:30;;;;;;;4.32;3.67;;;;;;;33.91;36.15;98830.16;5092854;28;20187;-61
2022/05/30 07:56:57;;;;;;;4.97;4.57;;;;;;;34.09;35.28;98839.22;5093024;28;20206;-60
2022/05/30 07:59:24;;;;;;;7.05;3.78;;;;;;;34.46;35.06;98848.47;5092581;28;20203;-60
2022/05/30 08:01:51;;;;;;;3.97;3.72;;;;;;;34.48;34.10;98832.91;5093827;28;20326;-59
2022/05/30 08:04:18;;;;;;;9.00;5.10;;;;;;;34.69;34.05;98841.72;5093634;28;20290;-60
2022/05/30 08:06:45;;;;;;;8.27;4.72;;;;;;;35.02;33.70;98844.25;5093519;28;20294;-59
2022/05/30 08:09:12;;;;;;;9.82;6.35;;;;;;;35.56;32.52;98847.19;5093209;28;20198;-60
2022/05/30 08:11:40;;;;;;;6.75;5.15;;;;;;;36.18;31.46;98849.94;5093456;28;20197;-61
2022/05/30 08:14:07;;;;;;;7.07;4.55;;;;;;;36.30;31.19;98853.56;5093409;28;20256;-61
2022/05/30 08:16:37;;;;;;;5.28;4.35;;;;;;;36.08;31.36;98850.47;5093700;28;20253;-61
2022/05/30 08:19:04;;;;;;;6.10;4.78;;;;;;;36.00;31.93;98848.88;5092306;28;20647;-60
2022/05/30 08:21:31;;;;;;;9.90;4.90;;;;;;;35.58;33.37;98855.06;5093368;28;20219;-59
2022/05/30 08:23:58;;;;;;;7.22;5.20;;;;;;;35.73;32.05;98860.13;5092727;28;20199;-59
2022/05/30 08:26:25;;;;;;;6.57;5.55;;;;;;;35.10;32.56;98862.88;5092983;28;20202;-59
2022/05/30 08:28:53;;;;;;;4.75;4.32;;;;;;;35.41;32.37;98854.81;5092184;28;20203;-60
2022/05/30 08:31:20;;;;;;;5.28;4.57;;;;;;;35.37;32.79;98858.97;5093110;28;20202;-60
2022/05/30 08:33:47;;;;;;;10.32;5.05;;;;;;;34.96;33.86;98851.34;5093260;28;20195;-60
2022/05/30 08:36:14;;;;;;;11.52;5.40;;;;;;;34.91;34.46;98853.88;5093335;28;20201;-60
2022/05/30 08:38:42;;;;;;;7.35;5.05;;;;;;;34.56;34.69;98854.22;5092976;28;20295;-60
2022/05/30 08:44:01;;;;;;;8.23;5.45;;;;;;;33.75;36.24;98855.69;5092969;28;20202;-59
2022/05/30 08:46:38;;;;;;;11.90;6.50;;;;;;;33.47;37.49;98866.63;5092016;28;20234;-59
2022/05/30 08:49:17;;;;;;;5.95;5.45;;;;;;;33.19;37.42;98859.50;5092553;28;20285;-59
2022/05/30 08:52:10;;;;;;;6.38;4.95;;;;;;;33.21;37.13;98866.56;5093056;28;20199;-60
2022/05/30 08:54:51;;;;;;;8.88;6.07;;;;;;;33.21;37.94;98858.47;5092640;28;20195;-60
2022/05/30 08:57:32;;;;;;;9.43;5.28;;;;;;;32.76;38.04;98828.63;5091840;28;20195;-59
2022/05/30 09:00:09;;;;;;;7.68;5.63;;;;;;;33.02;38.08;98857.44;5092410;28;20206;-60
2022/05/30 09:02:43;;;;;;;10.00;5.85;;;;;;;33.16;37.52;98870.72;5092664;28;20295;-61
2022/05/30 09:05:14;;;;;;;6.13;5.53;;;;;;;33.09;36.51;98859.09;5092463;28;20191;-61
2022/05/30 09:07:46;;;;;;;7.22;5.10;;;;;;;32.97;36.94;98871.47;5091804;28;20668;-60
2022/05/30 09:10:19;;;;;;;6.65;5.45;;;;;;;32.92;37.40;98857.81;5084716;28;20569;-58
2022/05/30 09:12:49;;;;;;;15.70;10.75;;;;;;;33.05;37.41;98870.47;5088977;28;20198;-60
2022/05/30 09:15:22;;;;;;;7.97;5.50;;;;;;;32.95;37.57;98868.19;5090859;28;20191;-61
2022/05/30 09:17:55;;;;;;;6.70;5.95;;;;;;;32.87;37.73;98871.03;5091345;28;20195;-62
2022/05/30 09:20:24;;;;;;;7.53;6.82;;;;;;;32.89;38.49;98868.16;5088500;28;20192;-61
2022/05/30 09:22:52;;;;;;;7.00;4.70;;;;;;;32.97;36.48;98871.47;5091067;28;20242;-61
2022/05/30 09:28:11;;;;;;;5.82;5.13;;;;;;;33.12;35.03;98869.44;5072727;28;20191;-61
2022/05/30 09:30:49;;;;;;;6.15;5.57;;;;;;;33.00;35.83;98871.06;5090105;28;20191;-59
2022/05/30 09:33:27;;;;;;;6.60;5.55;;;;;;;33.29;35.50;98885.25;5089817;28;20206;-60
2022/05/30 09:36:12;;;;;;;5.57;4.95;;;;;;;33.35;34.32;98865.56;5089550;28;20802;-61
2022/05/30 09:38:41;;;;;;;10.13;4.63;;;;;;;33.42;33.42;98869.09;5090068;28;20552;-62
2022/05/30 09:41:14;;;;;;;10.90;4.40;;;;;;;33.42;34.20;98880.69;5089863;28;20663;-60
2022/05/30 09:43:45;;;;;;;7.45;5.18;;;;;;;33.56;33.81;98867.22;5089607;28;20210;-60
2022/05/30 09:46:22;;;;;;;15.85;7.25;;;;;;;33.78;34.11;98863.31;5089755;28;20223;-60
2022/05/30 09:49:04;;;;;;;10.52;5.97;;;;;;;33.46;34.47;98870.34;5089978;28;20195;-60
2022/05/30 09:51:33;;;;;;;24.65;8.98;;;;;;;33.68;34.64;98868.25;5089971;28;20192;-59
2022/05/30 09:54:00;;;;;;;26.08;7.00;;;;;;;33.82;33.94;98876.16;5089627;28;20192;-61
2022/05/30 09:56:30;;;;;;;9.57;5.93;;;;;;;33.78;34.21;98868.69;5089907;28;20218;-61
2022/05/30 09:59:08;;;;;;;22.58;6.43;;;;;;;34.00;33.93;98869.28;5089665;28;20204;-59
2022/05/30 10:01:38;;;;;;;24.65;6.70;;;;;;;34.04;34.19;98878.59;5088651;28;20191;-59
2022/05/30 10:04:18;;;;;;;13.57;6.28;;;;;;;33.80;34.10;98872.00;5089113;28;20543;-59
2022/05/30 10:07:04;;;;;;;20.77;7.15;;;;;;;33.63;34.35;98879.66;5088778;28;20201;-60
2022/05/30 10:09:32;;;;;;;11.30;5.78;;;;;;;33.47;34.55;98867.44;5088587;28;20192;-61
2022/05/30 10:12:00;;;;;;;9.88;6.55;;;;;;;32.98;35.73;98869.63;5089300;28;20272;-61
2022/05/30 10:14:34;;;;;;;11.93;6.15;;;;;;;32.72;36.56;98847.03;5085262;28;20209;-61
2022/05/30 10:17:13;;;;;;;15.68;5.57;;;;;;;32.57;36.08;98853.53;5087383;28;20191;-61
2022/05/30 10:19:47;;;;;;;10.23;4.97;;;;;;;32.50;35.99;98874.19;5087483;28;20195;-61
2022/05/30 10:28:29;;;;;;;18.00;6.18;;;;;;;31.94;38.70;98863.53;5089195;28;20202;-60
2022/05/30 10:31:11;;;;;;;8.15;4.88;;;;;;;31.73;38.10;98851.81;5088424;28;20199;-59
2022/05/30 10:34:18;;;;;;;8.25;5.10;;;;;;;31.78;38.20;98866.50;5088403;28;20227;-61
2022/05/30 10:37:11;;;;;;;12.27;5.18;;;;;;;31.60;38.40;98859.75;5088695;28;20203;-60
2022/05/30 10:40:07;;;;;;;8.98;5.45;;;;;;;31.54;38.82;98865.88;5088631;28;20198;-59
2022/05/30 10:42:39;;;;;;;8.63;5.40;;;;;;;31.59;38.88;98865.31;5088255;28;20217;-60
2022/05/30 10:45:11;;;;;;;10.02;4.95;;;;;;;31.40;38.48;98864.09;5086608;28;20206;-59
2022/05/30 10:47:45;;;;;;;10.15;4.80;;;;;;;31.29;38.37;98856.56;5089087;28;20195;-59
2022/05/30 10:50:18;;;;;;;6.38;4.63;;;;;;;31.31;39.29;98854.53;5087194;28;20286;-60
2022/05/30 10:52:51;;;;;;;5.65;5.10;;;;;;;31.30;39.76;98851.03;5086630;28;20202;-61
2022/05/30 10:55:25;;;;;;;10.90;4.72;;;;;;;31.25;39.63;98855.31;5088125;28;20187;-61
2022/05/30 10:58:00;;;;;;;4.75;4.35;;;;;;;31.13;39.50;98851.50;5089170;28;20199;-60
2022/05/30 11:00:33;;;;;;;4.70;4.15;;;;;;;31.12;39.46;98855.19;5086601;28;20686;-60
2022/05/30 11:03:04;;;;;;;4.85;3.97;;;;;;;30.92;38.99;98853.13;5088387;28;20317;-60
2022/05/30 11:05:41;;;;;;;6.75;3.83;;;;;;;30.94;39.30;98852.91;5088210;28;20195;-59
2022/05/30 11:08:14;;;;;;;7.38;4.05;;;;;;;30.83;39.20;98848.88;5086532;28;20191;-60
2022/05/30 11:10:48;;;;;;;5.22;4.18;;;;;;;30.84;39.60;98855.91;5088780;28;20632;-58
2022/05/30 11:13:34;;;;;;;6.60;4.45;;;;;;;30.97;39.28;98850.69;5088299;28;20190;-58
2022/05/30 11:16:05;;;;;;;5.47;4.18;;;;;;;31.02;37.64;98816.09;5086355;28;20195;-59
2022/05/30 11:18:40;;;;;;;4.40;3.83;;;;;;;31.23;37.90;98844.78;5087136;28;20195;-61
2022/05/30 11:21:18;;;;;;;7.38;3.60;;;;;;;31.19;37.58;98848.84;5086115;28;20671;-60
2022/05/30 11:23:45;;;;;;;7.07;3.85;;;;;;;31.24;38.18;98845.63;5086736;28;20325;-58
2022/05/30 11:26:45;;;;;;;11.32;3.97;;;;;;;31.27;37.86;98842.53;5088325;28;20195;-58
2022/05/30 11:29:39;;;;;;;4.55;4.15;;;;;;;31.26;37.03;98851.63;5086910;28;20191;-60
2022/05/30 11:32:15;;;;;;;5.10;3.55;;;;;;;31.17;36.86;98847.38;5087574;28;20195;-60
2022/05/30 11:34:57;;;;;;;7.05;3.75;;;;;;;31.24;37.38;98840.25;5087238;28;20191;-59
2022/05/30 11:37:50;;;;;;;8.77;3.88;;;;;;;31.40;36.77;98845.31;5087375;28;20197;-60
2022/05/30 11:40:30;;;;;;;8.18;4.18;;;;;;;31.39;37.07;98854.41;5086782;28;20210;-61
2022/05/30 11:43:26;;;;;;;5.70;4.10;;;;;;;31.51;37.35;98850.16;5086718;28;20334;-59
2022/05/30 11:45:59;;;;;;;6.40;4.38;;;;;;;31.36;36.87;98854.81;5086999;28;20231;-59
2022/05/30 11:48:35;;;;;;;7.53;3.90;;;;;;;31.23;37.05;98847.47;5087493;28;20201;-60
2022/05/30 11:51:15;;;;;;;8.05;4.15;;;;;;;31.18;37.25;98859.78;5087374;28;20210;-59
2022/05/30 11:54:19;;;;;;;6.95;4.38;;;;;;;31.14;36.51;98854.00;5086716;28;20187;-60
2022/05/30 11:56:56;;;;;;;14.35;7.50;;;;;;;31.18;37.11;98862.44;5079640;28;20205;-59
2022/05/30 11:59:49;;;;;;;5.70;4.28;;;;;;;31.24;36.47;98857.16;5087802;28;20579;-59
2022/05/30 12:02:22;;;;;;;6.05;4.20;;;;;;;30.97;36.12;98833.75;5085909;28;20207;-60
2022/05/30 12:05:18;;;;;;;8.77;3.75;;;;;;;31.15;36.74;98846.78;5087872;28;20198;-61
2022/05/30 12:08:23;;;;;;;4.90;3.90;;;;;;;31.20;36.39;98849.69;5087612;28;20196;-59
2022/05/30 12:11:10;;;;;;;6.45;3.97;;;;;;;31.12;36.61;98849.84;5069288;28;20274;-59
2022/05/30 12:13:54;;;;;;;8.18;4.20;;;;;;;31.08;37.08;98848.50;5087580;28;20366;-60